Time;durP1;ratioP1;P1;durP2;ratioP2;P2;SDS_P1;SDS_P2;PMS_P1;PMS_P2;Temp;Humidity;BMP_temperature;BMP_pressure;BME280_temperature;BME280_humidity;BME280_pressure;Samples;Min_cycle;Max_cycle;Signal;HPM_P1;HPM_P2
2023/10/01 10:22:32;;;;;;;7.70;2.80;;;;;;;22.46;74.93;100992.05;651759;1291;545620;-79
2023/10/01 10:37:44;;;;;;;12.20;2.50;;;;;;;24.27;65.79;101000.76;669022;1285;138425;-80
2023/10/01 10:52:57;;;;;;;5.10;2.00;;;;;;;23.63;64.60;100987.05;668470;1275;137769;-79
2023/10/01 11:08:02;;;;;;;8.10;2.30;;;;;;;23.43;63.47;100983.59;664182;1272;137688;-80
2023/10/01 11:23:08;;;;;;;10.20;2.50;;;;;;;23.44;62.99;100982.61;668263;1274;138101;-79
2023/10/01 11:38:16;;;;;;;9.70;2.10;;;;;;;22.86;63.17;100972.17;666942;1271;138833;-79
2023/10/01 11:53:28;;;;;;;7.80;2.70;;;;;;;23.16;62.89;100948.09;672301;1269;138679;-79
2023/10/01 12:08:47;;;;;;;6.70;2.70;;;;;;;22.72;64.35;100945.80;666312;1281;137648;-79
2023/10/01 12:23:50;;;;;;;5.40;1.90;;;;;;;22.35;63.93;100934.52;666165;1268;138579;-79
2023/10/01 12:54:18;;;;;;;10.20;4.00;;;;;;;22.17;63.54;100915.69;665164;1271;138459;-77
2023/10/01 13:24:53;;;;;;;9.60;2.80;;;;;;;22.97;61.93;100925.80;666800;1270;140258;-79
2023/10/01 14:10:56;;;;;;;8.00;2.80;;;;;;;21.57;63.74;100918.89;670101;1272;138627;-80
2023/10/01 14:26:10;;;;;;;8.90;2.70;;;;;;;21.30;64.07;100920.41;670297;1272;138141;-79
2023/10/01 14:41:17;;;;;;;8.10;3.00;;;;;;;20.94;65.24;100904.84;665763;1279;137937;-79
2023/10/01 14:56:21;;;;;;;4.80;2.40;;;;;;;20.66;66.11;100900.59;670286;1269;138006;-79
2023/10/01 15:11:25;;;;;;;4.40;2.40;;;;;;;20.56;66.65;100898.91;669939;1272;139197;-79
2023/10/01 15:26:29;;;;;;;5.70;2.30;;;;;;;20.32;67.23;100893.33;667613;1279;139060;-79
2023/10/01 15:41:33;;;;;;;8.50;3.00;;;;;;;20.14;68.10;100892.95;670181;1282;138507;-79
2023/10/01 15:56:36;;;;;;;7.60;2.70;;;;;;;19.63;69.27;100895.03;670060;1270;138873;-79
2023/10/01 16:11:39;;;;;;;30.50;14.60;;;;;;;19.11;70.64;100907.73;665802;1281;138153;-78
2023/10/01 16:26:45;;;;;;;18.30;8.60;;;;;;;18.69;71.77;100918.83;665378;1271;138834;-77
2023/10/01 16:41:52;;;;;;;16.40;8.90;;;;;;;18.37;72.76;100924.20;665121;1267;138871;-77
2023/10/01 16:56:58;;;;;;;80.20;28.60;;;;;;;17.43;73.75;100934.64;666072;1266;139738;-77
2023/10/01 17:12:03;;;;;;;18.20;9.70;;;;;;;16.47;76.76;100939.48;666786;1286;138454;-78
2023/10/01 17:27:16;;;;;;;41.10;23.00;;;;;;;16.10;78.50;100948.17;665416;1283;140282;-78
2023/10/01 17:42:20;;;;;;;19.00;9.90;;;;;;;15.78;80.17;100949.22;665467;1267;139286;-80
2023/10/01 17:57:26;;;;;;;23.20;11.40;;;;;;;15.15;81.48;100954.69;668794;1274;138977;-80
2023/10/01 18:12:33;;;;;;;43.20;20.60;;;;;;;14.80;83.03;100958.21;671943;1263;139850;-80
2023/10/01 18:27:36;;;;;;;44.80;19.30;;;;;;;14.47;84.46;100961.80;673778;1263;139725;-80
2023/10/01 18:42:40;;;;;;;23.30;9.90;;;;;;;14.25;85.56;100981.06;673932;1263;139267;-80
2023/10/01 18:57:44;;;;;;;34.20;15.50;;;;;;;14.23;86.41;100987.10;678039;1264;139678;-80
2023/10/01 19:12:47;;;;;;;18.90;7.20;;;;;;;13.83;87.23;100985.77;674940;1264;142514;-80
2023/10/01 19:27:56;;;;;;;10.70;6.00;;;;;;;13.60;87.90;100994.58;673688;1263;140110;-79
2023/10/01 19:43:00;;;;;;;19.90;7.40;;;;;;;13.28;88.42;100998.92;673300;1263;139942;-79
2023/10/01 19:58:03;;;;;;;19.80;8.30;;;;;;;13.02;89.90;100996.13;673788;1264;139282;-79
2023/10/01 20:13:07;;;;;;;24.10;7.70;;;;;;;13.14;90.46;100998.34;674995;1261;139717;-80
2023/10/01 20:28:10;;;;;;;20.60;7.70;;;;;;;13.32;91.24;101001.23;673682;1264;139278;-80
2023/10/01 20:43:22;;;;;;;16.00;7.00;;;;;;;13.48;92.52;101011.60;674419;1262;140017;-79
2023/10/01 20:58:25;;;;;;;13.60;6.60;;;;;;;13.92;93.04;101005.23;674354;1263;139824;-80
2023/10/01 21:13:28;;;;;;;14.70;6.90;;;;;;;14.22;93.07;101000.05;674789;1273;139704;-79
2023/10/01 21:28:32;;;;;;;18.80;8.10;;;;;;;14.03;94.17;101008.95;674320;1274;140711;-80
2023/10/01 21:43:38;;;;;;;15.10;6.10;;;;;;;13.74;93.27;100996.41;676267;1262;140206;-80
2023/10/01 21:58:46;;;;;;;14.00;6.90;;;;;;;13.51;92.81;100993.42;674046;1262;139802;-80
2023/10/01 22:13:49;;;;;;;12.50;6.50;;;;;;;13.06;93.99;100985.92;673725;1262;139075;-80
2023/10/01 22:28:59;;;;;;;13.70;6.20;;;;;;;12.84;95.34;100983.40;674008;1259;140024;-80
2023/10/01 22:44:10;;;;;;;14.00;6.10;;;;;;;12.65;95.88;100996.62;674614;1259;139943;-81
2023/10/01 22:59:16;;;;;;;13.40;6.00;;;;;;;12.75;96.12;100999.80;675513;1264;139650;-80
2023/10/01 23:14:26;;;;;;;20.80;8.70;;;;;;;12.70;96.30;101006.00;673844;1260;139534;-80
2023/10/01 23:29:29;;;;;;;15.50;6.40;;;;;;;12.77;96.66;101010.71;673958;1262;139913;-80
2023/10/01 23:59:59;;;;;;;14.70;6.80;;;;;;;12.39;98.19;101000.50;674859;1259;141426;-80
